createdAt,value
2019-01-28T00:00:20.346Z,18.5
2019-01-28T00:01:20.938Z,18.5
2019-01-28T00:02:21.153Z,18.5
2019-01-28T00:03:20.234Z,18.5
2019-01-28T00:04:20.933Z,18.5
2019-01-28T00:05:20.112Z,18.5
2019-01-28T00:06:20.109Z,18.5
2019-01-28T00:07:20.276Z,18.5
2019-01-28T00:08:20.452Z,18.5
2019-01-28T00:09:20.442Z,18.5
2019-01-28T00:10:20.213Z,18.5
2019-01-28T00:11:20.565Z,18.5
2019-01-28T00:12:20.206Z,18.5
2019-01-28T00:13:20.232Z,18.5
2019-01-28T00:14:20.352Z,18.5
2019-01-28T00:15:20.396Z,18.25
2019-01-28T00:16:20.203Z,18.25
2019-01-28T00:17:20.347Z,18.25
2019-01-28T00:18:21.179Z,18.25
2019-01-28T00:19:20.301Z,18.25
2019-01-28T00:20:20.712Z,18.25
2019-01-28T00:21:20.431Z,18.25
2019-01-28T00:22:20.352Z,18.25
2019-01-28T00:23:20.314Z,18.25
2019-01-28T00:24:20.435Z,18.25
2019-01-28T00:25:20.301Z,18.25
2019-01-28T00:26:21.086Z,18.25
2019-01-28T00:27:20.205Z,18.25
2019-01-28T00:28:22.057Z,18.25
2019-01-28T00:29:20.431Z,18.25
2019-01-28T00:30:20.676Z,18.25
2019-01-28T00:31:20.236Z,18.25
2019-01-28T00:32:20.007Z,18.25
2019-01-28T00:33:20.278Z,18.25
2019-01-28T00:34:20.025Z,18.25
2019-01-28T00:35:20.557Z,18.25
2019-01-28T00:36:20.249Z,18.25
2019-01-28T00:37:23.248Z,18.25
2019-01-28T00:38:20.076Z,18.25
2019-01-28T00:39:20.505Z,18.25
2019-01-28T00:40:20.467Z,18.25
2019-01-28T00:41:20.120Z,18.25
2019-01-28T00:42:20.244Z,18.25
2019-01-28T00:43:20.280Z,18.25
2019-01-28T00:44:20.117Z,18.25
2019-01-28T00:45:20.195Z,18.25
2019-01-28T00:46:20.205Z,18.25
2019-01-28T00:47:20.213Z,18.25
2019-01-28T00:48:20.210Z,18.25
2019-01-28T00:49:20.954Z,18.25
2019-01-28T00:50:20.357Z,18.25
2019-01-28T00:51:20.465Z,18.25
2019-01-28T00:52:20.213Z,18.25
2019-01-28T00:53:20.568Z,18.25
2019-01-28T00:54:20.078Z,18.25
2019-01-28T00:55:20.311Z,18.25
2019-01-28T00:56:20.657Z,18.25
2019-01-28T00:57:20.162Z,18.25
2019-01-28T00:58:20.698Z,18.25
2019-01-28T00:59:20.279Z,18.25
2019-01-28T01:00:20.429Z,18.25
2019-01-28T01:01:21.352Z,18.25
2019-01-28T01:02:20.524Z,18.25
2019-01-28T01:03:20.323Z,18.25
2019-01-28T01:04:20.014Z,18.25
2019-01-28T01:05:20.333Z,18.25
2019-01-28T01:06:20.131Z,18.25
2019-01-28T01:07:20.360Z,18.25
2019-01-28T01:08:20.310Z,18.25
2019-01-28T01:09:20.015Z,18.25
2019-01-28T01:10:20.296Z,18
2019-01-28T01:11:20.702Z,18.25
2019-01-28T01:12:20.331Z,18
2019-01-28T01:13:20.207Z,18.25
2019-01-28T01:14:20.177Z,18.25
2019-01-28T01:15:20.140Z,18
2019-01-28T01:16:20.102Z,18
2019-01-28T01:17:20.215Z,18
2019-01-28T01:18:23.724Z,18
2019-01-28T01:19:20.228Z,18
2019-01-28T01:20:20.330Z,18
2019-01-28T01:21:20.155Z,18
2019-01-28T01:22:20.237Z,18
2019-01-28T01:23:20.987Z,18
2019-01-28T01:24:20.483Z,18
2019-01-28T01:25:20.392Z,18
2019-01-28T01:26:20.283Z,18
2019-01-28T01:27:20.343Z,18
2019-01-28T01:28:20.413Z,18
2019-01-28T01:29:21.145Z,18
2019-01-28T01:30:20.393Z,18
2019-01-28T01:31:20.187Z,18
2019-01-28T01:32:20.628Z,18
2019-01-28T01:33:20.224Z,18
2019-01-28T01:34:20.459Z,18
2019-01-28T01:35:20.154Z,18
2019-01-28T01:36:20.111Z,18
2019-01-28T01:37:20.082Z,18
2019-01-28T01:38:20.108Z,18
2019-01-28T01:39:20.092Z,18
2019-01-28T01:40:21.778Z,18
2019-01-28T01:41:20.409Z,18
2019-01-28T01:42:20.947Z,18
2019-01-28T01:43:20.522Z,18
2019-01-28T01:44:20.146Z,18
2019-01-28T01:45:20.442Z,18
2019-01-28T01:46:20.552Z,18
2019-01-28T01:47:20.354Z,18
2019-01-28T01:49:20.814Z,18
2019-01-28T01:50:20.346Z,18
2019-01-28T01:51:20.308Z,18
2019-01-28T01:52:20.153Z,18
2019-01-28T01:53:20.725Z,18
2019-01-28T01:54:20.178Z,18
2019-01-28T01:55:20.496Z,18
2019-01-28T01:56:20.647Z,18
2019-01-28T01:57:20.221Z,18
2019-01-28T01:58:20.254Z,18
2019-01-28T01:59:21.247Z,18
2019-01-28T02:00:21.313Z,18
2019-01-28T02:01:20.398Z,18
2019-01-28T02:02:20.438Z,18
2019-01-28T02:03:20.408Z,18
2019-01-28T02:04:20.232Z,18
2019-01-28T02:05:20.466Z,18
2019-01-28T02:06:20.012Z,18
2019-01-28T02:07:20.340Z,18
2019-01-28T02:08:20.268Z,18
2019-01-28T02:09:19.989Z,18
2019-01-28T02:10:20.151Z,18
2019-01-28T02:11:20.403Z,18
2019-01-28T02:12:20.325Z,18
2019-01-28T02:13:20.139Z,18
2019-01-28T02:14:20.112Z,18
2019-01-28T02:16:20.129Z,18
2019-01-28T02:17:20.190Z,18
2019-01-28T02:18:20.450Z,18
2019-01-28T02:19:20.407Z,18
2019-01-28T02:20:20.384Z,18
2019-01-28T02:21:20.201Z,18
2019-01-28T02:22:20.073Z,18
2019-01-28T02:23:20.167Z,18
2019-01-28T02:24:20.526Z,17.75
2019-01-28T02:25:20.217Z,17.75
2019-01-28T02:26:20.022Z,17.75
2019-01-28T02:27:20.566Z,17.75
2019-01-28T02:28:20.194Z,17.75
2019-01-28T20:19:46.631Z,19.75
2019-01-28T20:20:46.618Z,19.75
2019-01-28T20:21:46.824Z,19.75
2019-01-28T20:22:46.775Z,19.75
2019-01-28T20:23:46.816Z,19.75
2019-01-28T20:24:46.570Z,19.75
2019-01-28T20:25:46.789Z,19.75
2019-01-28T20:26:47.598Z,19.75
2019-01-28T20:27:46.918Z,19.75
2019-01-28T20:28:47.282Z,19.75
2019-01-28T20:29:46.728Z,19.75
2019-01-28T20:30:47.085Z,19.75
2019-01-28T20:31:46.366Z,19.75
2019-01-28T20:32:46.328Z,19.75
2019-01-28T20:33:46.544Z,19.75
2019-01-28T20:34:46.544Z,19.75
2019-01-28T20:35:46.724Z,19.75
2019-01-28T20:36:46.626Z,19.75
2019-01-28T20:37:46.751Z,19.75
2019-01-28T20:38:46.656Z,19.75
2019-01-28T20:39:46.681Z,19.75
2019-01-28T20:40:46.384Z,19.5
2019-01-28T20:41:46.577Z,19.5
2019-01-28T20:42:46.744Z,19.75
2019-01-28T20:43:46.388Z,19.5
2019-01-28T20:44:46.421Z,19.75
2019-01-28T20:45:46.393Z,19.5
2019-01-28T20:46:48.960Z,19.5
2019-01-28T20:47:46.617Z,19.75
2019-01-28T20:48:46.864Z,19.5
2019-01-28T20:49:46.575Z,19.5
2019-01-28T20:50:46.473Z,19.5
2019-01-28T20:51:46.557Z,19.5
2019-01-28T20:52:46.775Z,19.5
2019-01-28T20:53:48.323Z,19.5
2019-01-28T20:54:46.762Z,19.5
2019-01-28T20:55:46.517Z,19.5
2019-01-28T20:56:46.832Z,19.5
2019-01-28T20:57:46.739Z,19.5
2019-01-28T20:58:46.847Z,19.5
2019-01-28T20:59:46.768Z,19.5
2019-01-28T21:00:46.787Z,19.5
2019-01-28T21:01:46.824Z,19.5
2019-01-28T21:02:48.502Z,19.5
2019-01-28T21:03:48.280Z,19.5
2019-01-28T21:04:47.047Z,19.5
2019-01-28T21:05:47.569Z,19.5
2019-01-28T21:06:46.951Z,19.5
2019-01-28T21:07:47.755Z,19.5
2019-01-28T21:08:47.181Z,19.5
2019-01-28T21:09:47.062Z,19.5
2019-01-28T21:10:47.317Z,19.5
2019-01-28T21:11:46.818Z,19.5
2019-01-28T21:12:47.365Z,19.5
2019-01-28T21:13:46.804Z,19.5
2019-01-28T21:14:46.862Z,19.5
2019-01-28T21:15:46.827Z,19.5
2019-01-28T21:16:47.569Z,19.5
2019-01-28T21:17:46.879Z,19.5
2019-01-28T21:18:46.887Z,19.5
2019-01-28T21:19:47.205Z,19.5
2019-01-28T21:20:46.569Z,19.5
2019-01-28T21:21:46.730Z,19.5
2019-01-28T21:22:46.662Z,19.5
2019-01-28T21:24:46.723Z,19.5
2019-01-28T21:25:46.709Z,19.5
2019-01-28T21:26:47.786Z,19.5
2019-01-28T21:27:46.586Z,19.5
2019-01-28T21:28:46.745Z,19.5
2019-01-28T21:29:46.839Z,19.5
2019-01-28T21:30:46.888Z,19.5
2019-01-28T21:31:46.707Z,19.5
2019-01-28T21:32:46.978Z,19.5
2019-01-28T21:33:46.933Z,19.5
2019-01-28T21:34:46.833Z,19.5
2019-01-28T21:35:46.902Z,19.5
2019-01-28T21:36:46.942Z,19.5
2019-01-28T21:37:46.819Z,19.25
2019-01-28T21:38:46.644Z,19.25
2019-01-28T21:39:46.837Z,19.25
2019-01-28T21:40:46.771Z,19.25
2019-01-28T21:41:49.104Z,19.25
2019-01-28T21:42:46.719Z,19.25
2019-01-28T21:43:46.982Z,19.25
2019-01-28T21:44:48.474Z,19.25
2019-01-28T21:45:46.879Z,19.25
2019-01-28T21:46:46.717Z,19.25
2019-01-28T21:47:46.638Z,19.25
2019-01-28T21:48:46.655Z,19.25
2019-01-28T21:49:48.241Z,19.25
2019-01-28T21:50:46.674Z,19.25
2019-01-28T21:51:51.038Z,19.25
2019-01-28T21:52:46.773Z,19.25
2019-01-28T21:53:46.757Z,19.25
2019-01-28T21:54:46.728Z,19.25
2019-01-28T21:55:46.771Z,19.25
2019-01-28T21:56:48.027Z,19.25
2019-01-28T21:57:48.219Z,19.25
2019-01-28T21:58:46.880Z,19.25
2019-01-28T21:59:46.643Z,19.25
2019-01-28T22:00:47.007Z,19.25
2019-01-28T22:01:46.579Z,19.25
2019-01-28T22:02:47.282Z,19.25
2019-01-28T22:03:47.947Z,19
2019-01-28T22:04:47.050Z,19.25
2019-01-28T22:05:47.052Z,19
2019-01-28T22:06:46.975Z,19
2019-01-28T22:07:46.558Z,19
2019-01-28T22:08:46.806Z,19
2019-01-28T22:09:46.489Z,19
2019-01-28T22:10:46.963Z,19
2019-01-28T22:11:46.965Z,19
2019-01-28T22:12:46.687Z,19
2019-01-28T22:13:46.748Z,19
2019-01-28T22:14:46.890Z,19
2019-01-28T22:15:46.959Z,19
2019-01-28T22:16:47.249Z,19
2019-01-28T22:17:47.450Z,19
2019-01-28T22:18:46.809Z,19
2019-01-28T22:19:46.612Z,19
2019-01-28T22:20:46.429Z,19
2019-01-28T22:21:47.150Z,19
2019-01-28T22:22:46.654Z,19
2019-01-28T22:23:46.477Z,19
2019-01-28T22:24:46.565Z,19
2019-01-28T22:25:46.620Z,19
2019-01-28T22:26:46.470Z,19
2019-01-28T22:28:46.757Z,19
2019-01-28T22:29:47.098Z,19
2019-01-28T22:30:46.634Z,18.75
2019-01-28T22:31:46.632Z,18.75
2019-01-28T22:32:46.442Z,19
2019-01-28T22:33:47.054Z,18.75
2019-01-28T22:34:48.397Z,18.75
2019-01-28T22:35:46.642Z,18.75
2019-01-28T22:36:47.162Z,18.75
2019-01-28T22:37:46.660Z,18.75
2019-01-28T22:38:49.724Z,18.75
2019-01-28T22:39:46.744Z,18.75
2019-01-28T22:40:46.730Z,18.75
2019-01-28T22:41:46.640Z,18.75
2019-01-28T22:42:46.663Z,18.75
2019-01-28T22:43:46.904Z,18.75
2019-01-28T22:44:46.701Z,18.75
2019-01-28T22:45:47.060Z,18.75
2019-01-28T22:46:47.374Z,18.75
2019-01-28T22:47:46.754Z,18.75
2019-01-28T22:48:46.721Z,18.75
2019-01-28T22:49:46.858Z,18.75
2019-01-28T22:50:46.865Z,18.75
2019-01-28T22:51:47.157Z,18.75
2019-01-28T22:52:46.909Z,18.75
2019-01-28T22:53:47.300Z,18.75
2019-01-28T22:54:47.195Z,18.75
2019-01-28T22:55:46.836Z,18.75
2019-01-28T22:56:46.423Z,18.75
2019-01-28T22:57:46.839Z,18.75
2019-01-28T22:58:46.846Z,18.75
2019-01-28T22:59:46.608Z,18.75
2019-01-28T23:00:46.703Z,18.75
2019-01-28T23:01:46.841Z,18.75
2019-01-28T23:02:46.723Z,18.75
2019-01-28T23:03:46.572Z,18.5
2019-01-28T23:04:46.602Z,18.5
2019-01-28T23:05:46.948Z,18.5
2019-01-28T23:06:46.887Z,18.5
2019-01-28T23:07:46.944Z,18.5
2019-01-28T23:08:46.780Z,18.5
2019-01-28T23:09:46.794Z,18.5
2019-01-28T23:10:46.657Z,18.5
2019-01-28T23:11:46.541Z,18.5
2019-01-28T23:12:47.025Z,18.5
2019-01-28T23:13:46.690Z,18.5
2019-01-28T23:14:46.880Z,18.5
2019-01-28T23:15:47.029Z,18.5
2019-01-28T23:16:46.847Z,18.5
2019-01-28T23:17:46.868Z,18.5
2019-01-28T23:18:46.582Z,18.5
2019-01-28T23:19:46.504Z,18.5
2019-01-28T23:20:46.598Z,18.5
2019-01-28T23:21:46.926Z,18.5
2019-01-28T23:22:46.514Z,18.5
2019-01-28T23:23:47.014Z,18.5
2019-01-28T23:24:46.788Z,18.5
2019-01-28T23:25:46.830Z,18.5
2019-01-28T23:26:46.748Z,18.5
2019-01-28T23:27:47.147Z,18.5
2019-01-28T23:28:46.591Z,18.5
2019-01-28T23:29:46.576Z,18.5
2019-01-28T23:30:46.782Z,18.5
2019-01-28T23:31:46.663Z,18.5
2019-01-28T23:32:46.688Z,18.5
2019-01-28T23:33:46.618Z,18.5
2019-01-28T23:34:46.484Z,18.5
2019-01-28T23:35:46.614Z,18.5
2019-01-28T23:36:47.394Z,18.5
2019-01-28T23:37:46.888Z,18.5
2019-01-28T23:38:47.105Z,18.5
2019-01-28T23:39:47.535Z,18.5
2019-01-28T23:40:46.641Z,18.25
2019-01-28T23:41:46.351Z,18.25
2019-01-28T23:42:46.743Z,18.25
2019-01-28T23:43:46.520Z,18.25
2019-01-28T23:44:46.429Z,18.25
2019-01-28T23:45:46.859Z,18.25
2019-01-28T23:46:46.765Z,18.25
2019-01-28T23:47:46.619Z,18.25
2019-01-28T23:48:46.749Z,18.25
2019-01-28T23:49:46.605Z,18.25
2019-01-28T23:50:46.723Z,18.25
2019-01-28T23:51:46.798Z,18.25
2019-01-28T23:52:47.757Z,18.25
2019-01-28T23:53:47.462Z,18.25
2019-01-28T23:54:46.625Z,18.25
2019-01-28T23:55:47.442Z,18.25
2019-01-28T23:56:46.826Z,18.25
2019-01-28T23:57:46.656Z,18.25
2019-01-28T23:58:47.056Z,18.25
2019-01-28T23:59:46.862Z,18.25
